createdAt,value
2023-02-14T00:00:23.240Z,103294.31
2023-02-14T00:02:51.415Z,103294.25
2023-02-14T00:05:19.777Z,103296.97
2023-02-14T00:07:48.829Z,103294.50
2023-02-14T00:10:17.905Z,103291.94
2023-02-14T00:12:46.470Z,103287.50
2023-02-14T00:15:22.640Z,103283.88
2023-02-14T00:17:53.148Z,103285.59
2023-02-14T00:20:23.275Z,103284.63
2023-02-14T00:22:51.783Z,103289.91
2023-02-14T00:25:19.946Z,103289.97
2023-02-14T00:27:48.123Z,103283.88
2023-02-14T00:30:16.999Z,103288.19
2023-02-14T00:32:45.574Z,103288.19
2023-02-14T00:35:26.448Z,103290.81
2023-02-14T00:37:56.024Z,103288.25
2023-02-14T00:40:24.462Z,103280.25
2023-02-14T00:42:52.419Z,103279.47
2023-02-14T00:45:24.079Z,103275.09
2023-02-14T00:47:52.183Z,103276.88
2023-02-14T00:50:21.884Z,103285.66
2023-02-14T00:52:50.892Z,103286.22
2023-02-14T00:55:19.113Z,103275.28
2023-02-14T00:57:48.708Z,103271.03
2023-02-14T01:00:18.543Z,103271.91
2023-02-14T01:02:46.808Z,103282.66
2023-02-14T01:05:16.385Z,103273.69
2023-02-14T01:07:46.911Z,103273.69
2023-02-14T01:10:14.974Z,103277.75
2023-02-14T01:12:43.256Z,103269.22
2023-02-14T01:15:12.469Z,103267.38
2023-02-14T01:17:41.529Z,103267.06
2023-02-14T01:20:11.237Z,103265.09
2023-02-14T01:22:40.391Z,103257.22
2023-02-14T01:25:10.266Z,103256.31
2023-02-14T01:27:38.357Z,103257.97
2023-02-14T01:30:09.055Z,103257.84
2023-02-14T01:32:37.564Z,103261.41
2023-02-14T01:35:06.881Z,103258.09
2023-02-14T01:37:37.339Z,103248.00
2023-02-14T01:40:06.833Z,103248.00
2023-02-14T01:42:37.898Z,103249.16
2023-02-14T01:45:10.042Z,103248.25
2023-02-14T01:47:40.803Z,103248.38
2023-02-14T01:50:11.614Z,103234.38
2023-02-14T01:52:43.592Z,103241.50
2023-02-14T01:55:16.857Z,103241.50
2023-02-14T01:57:52.468Z,103232.66
2023-02-14T02:00:39.684Z,103243.09
2023-02-14T02:03:10.173Z,103238.78
2023-02-14T02:05:41.440Z,103234.50
2023-02-14T02:08:10.113Z,103243.41
2023-02-14T02:10:38.683Z,103244.22
2023-02-14T02:13:10.573Z,103248.38
2023-02-14T02:15:46.598Z,103239.78
2023-02-14T02:18:21.425Z,103240.63
2023-02-14T02:21:33.859Z,103248.41
2023-02-14T02:24:18.025Z,103242.03
2023-02-14T02:27:14.682Z,103250.19
2023-02-14T02:30:22.785Z,103239.53
2023-02-14T02:33:32.806Z,103244.88
2023-02-14T02:36:41.989Z,103248.31
2023-02-14T02:39:17.299Z,103248.47
2023-02-14T02:41:49.953Z,103244.81
2023-02-14T02:44:20.289Z,103239.84
2023-02-14T02:46:56.077Z,103248.81
2023-02-14T02:49:57.267Z,103241.53
2023-02-14T02:52:47.138Z,103253.09
2023-02-14T02:55:23.198Z,103250.53
2023-02-14T02:57:51.738Z,103250.47
2023-02-14T03:00:22.929Z,103240.78
2023-02-14T03:03:10.513Z,103245.75
2023-02-14T03:05:46.233Z,103244.69
2023-02-14T03:08:19.269Z,103240.97
2023-02-14T03:10:48.774Z,103246.06
2023-02-14T03:13:48.199Z,103234.50
2023-02-14T03:16:26.880Z,103242.44
2023-02-14T03:19:12.076Z,103248.69
2023-02-14T03:21:52.602Z,103245.25
2023-02-14T03:24:27.518Z,103244.28
2023-02-14T03:27:02.885Z,103238.13
2023-02-14T03:29:42.940Z,103239.41
2023-02-14T03:32:15.556Z,103243.13
2023-02-14T03:34:55.296Z,103236.72
2023-02-14T03:37:30.199Z,103237.03
2023-02-14T03:40:06.139Z,103233.41
2023-02-14T03:42:38.171Z,103236.31
2023-02-14T03:45:09.912Z,103236.84
2023-02-14T03:47:39.036Z,103234.09
2023-02-14T03:50:12.317Z,103235.63
2023-02-14T03:52:41.604Z,103237.34
2023-02-14T03:55:12.154Z,103236.47
2023-02-14T03:57:47.651Z,103235.56
2023-02-14T04:00:18.287Z,103238.25
2023-02-14T04:02:48.576Z,103235.84
2023-02-14T04:05:18.946Z,103230.69
2023-02-14T04:07:51.508Z,103228.28
2023-02-14T04:10:21.897Z,103235.13
2023-02-14T04:12:50.955Z,103235.16
2023-02-14T04:15:19.560Z,103224.66
2023-02-14T04:18:05.684Z,103231.63
2023-02-14T04:20:34.123Z,103224.94
2023-02-14T04:23:03.542Z,103223.00
2023-02-14T04:25:34.216Z,103221.16
2023-02-14T04:28:02.635Z,103226.78
2023-02-14T04:30:33.713Z,103224.94
2023-02-14T04:33:02.348Z,103230.91
2023-02-14T04:35:30.507Z,103232.69
2023-02-14T04:37:59.882Z,103225.63
2023-02-14T04:40:28.282Z,103229.88
2023-02-14T04:42:58.732Z,103229.78
2023-02-14T04:45:26.824Z,103234.09
2023-02-14T04:47:57.797Z,103225.38
2023-02-14T04:50:26.387Z,103225.88
2023-02-14T04:52:54.938Z,103227.81
2023-02-14T04:55:25.122Z,103213.97
2023-02-14T04:57:54.822Z,103214.00
2023-02-14T05:00:25.972Z,103211.13
2023-02-14T05:02:54.311Z,103218.25
2023-02-14T05:05:22.556Z,103217.28
2023-02-14T05:07:50.806Z,103205.31
2023-02-14T05:10:19.242Z,103210.72
2023-02-14T05:12:47.514Z,103209.81
2023-02-14T05:15:15.831Z,103207.03
2023-02-14T05:17:45.240Z,103211.69
2023-02-14T05:20:14.122Z,103206.66
2023-02-14T05:22:43.547Z,103210.09
2023-02-14T05:25:11.955Z,103201.91
2023-02-14T05:27:41.237Z,103197.28
2023-02-14T05:30:11.008Z,103197.53
2023-02-14T05:32:39.218Z,103194.16
2023-02-14T05:35:10.827Z,103204.38
2023-02-14T05:37:39.075Z,103206.44
2023-02-14T05:40:09.171Z,103205.69
2023-02-14T05:42:39.384Z,103198.50
2023-02-14T05:45:09.948Z,103187.78
2023-02-14T05:47:38.130Z,103203.63
2023-02-14T05:50:09.834Z,103212.31
2023-02-14T05:52:38.873Z,103199.66
2023-02-14T05:55:07.725Z,103197.13
2023-02-14T05:57:37.263Z,103198.81
2023-02-14T06:00:06.658Z,103201.09
2023-02-14T06:02:42.281Z,103194.09
2023-02-14T06:05:15.154Z,103194.78
2023-02-14T06:07:45.803Z,103197.09
2023-02-14T06:10:13.864Z,103202.00
2023-02-14T06:12:43.016Z,103192.75
2023-02-14T06:15:13.131Z,103201.53
2023-02-14T06:17:41.389Z,103202.38
2023-02-14T06:20:12.787Z,103195.63
2023-02-14T06:22:41.575Z,103206.13
2023-02-14T06:25:09.579Z,103205.63
2023-02-14T06:27:37.645Z,103206.31
2023-02-14T06:30:06.823Z,103202.75
2023-02-14T06:32:34.863Z,103209.94
2023-02-14T06:35:03.514Z,103211.22
2023-02-14T06:37:33.690Z,103208.66
2023-02-14T06:40:02.532Z,103208.72
2023-02-14T06:42:30.757Z,103208.09
2023-02-14T06:44:58.846Z,103203.28
2023-02-14T06:47:27.409Z,103201.16
2023-02-14T06:49:55.521Z,103202.75
2023-02-14T06:52:24.069Z,103199.97
2023-02-14T06:54:55.983Z,103200.59
2023-02-14T06:57:24.420Z,103197.34
2023-02-14T06:59:53.583Z,103202.81
2023-02-14T07:02:24.789Z,103202.31
2023-02-14T07:04:53.176Z,103199.31
2023-02-14T07:07:21.138Z,103201.34
2023-02-14T07:09:49.758Z,103195.56
2023-02-14T07:12:19.657Z,103202.63
2023-02-14T07:14:49.342Z,103191.59
2023-02-14T07:17:17.711Z,103208.22
2023-02-14T07:19:46.245Z,103202.69
2023-02-14T07:22:14.391Z,103194.56
2023-02-14T07:24:43.870Z,103189.22
2023-02-14T07:27:13.592Z,103190.31
2023-02-14T07:29:43.210Z,103188.00
2023-02-14T07:32:11.521Z,103199.97
2023-02-14T07:34:40.001Z,103196.91
2023-02-14T07:37:09.559Z,103204.09
2023-02-14T07:39:38.021Z,103206.59
2023-02-14T07:42:10.159Z,103209.22
2023-02-14T07:44:40.889Z,103202.91
2023-02-14T07:47:12.809Z,103198.03
2023-02-14T07:49:41.095Z,103198.16
2023-02-14T07:52:09.567Z,103195.94
2023-02-14T07:54:40.316Z,103186.81
2023-02-14T07:57:08.358Z,103193.75
2023-02-14T07:59:36.662Z,103195.22
2023-02-14T08:02:05.652Z,103189.84
2023-02-14T08:04:36.124Z,103189.94
2023-02-14T08:07:04.227Z,103201.53
2023-02-14T08:09:33.759Z,103201.06
2023-02-14T08:12:21.436Z,103202.06
2023-02-14T08:14:57.354Z,103199.34
2023-02-14T08:17:26.753Z,103207.28
2023-02-14T08:19:56.815Z,103211.38
2023-02-14T08:22:28.168Z,103210.44
2023-02-14T08:25:06.557Z,103216.09
2023-02-14T08:27:34.867Z,103216.91
2023-02-14T08:30:03.959Z,103218.75
2023-02-14T08:32:32.920Z,103220.81
2023-02-14T08:35:03.311Z,103219.16
2023-02-14T08:37:32.195Z,103222.72
2023-02-14T08:40:00.514Z,103226.34
2023-02-14T08:42:29.654Z,103234.03
2023-02-14T08:45:02.038Z,103227.88
2023-02-14T08:47:31.119Z,103227.81
2023-02-14T08:49:59.280Z,103239.78
2023-02-14T08:52:28.816Z,103237.72
2023-02-14T08:54:56.863Z,103244.78
2023-02-14T08:57:27.784Z,103227.03
2023-02-14T09:00:00.683Z,103231.19
2023-02-14T09:02:28.774Z,103229.28
2023-02-14T09:04:57.366Z,103222.53
2023-02-14T09:07:26.159Z,103225.06
2023-02-14T09:09:56.479Z,103232.50
2023-02-14T09:12:25.626Z,103234.31
2023-02-14T09:14:54.847Z,103225.72
2023-02-14T09:17:24.509Z,103230.22
2023-02-14T09:19:52.664Z,103242.00
2023-02-14T09:22:24.628Z,103239.25
2023-02-14T09:24:56.116Z,103241.22
2023-02-14T09:27:26.776Z,103232.97
2023-02-14T09:29:56.217Z,103238.44
2023-02-14T09:32:26.479Z,103235.13
2023-02-14T09:34:55.041Z,103233.22
2023-02-14T09:37:42.038Z,103229.78
2023-02-14T09:40:14.998Z,103234.28
2023-02-14T09:43:05.390Z,103228.78
2023-02-14T09:45:38.625Z,103237.38
2023-02-14T09:48:23.865Z,103236.78
2023-02-14T09:50:54.931Z,103232.44
2023-02-14T09:53:30.547Z,103239.84
2023-02-14T09:56:07.369Z,103235.78
2023-02-14T09:58:38.579Z,103237.16
2023-02-14T10:01:13.528Z,103241.34
2023-02-14T10:04:05.627Z,103237.28
2023-02-14T10:06:47.495Z,103240.22
2023-02-14T10:09:39.200Z,103238.00
2023-02-14T10:12:15.394Z,103229.44
2023-02-14T10:14:45.546Z,103234.81
2023-02-14T10:17:18.555Z,103235.44
2023-02-14T10:19:49.965Z,103235.59
2023-02-14T10:22:22.363Z,103235.50
2023-02-14T10:24:54.516Z,103227.91
2023-02-14T10:27:31.934Z,103239.31
2023-02-14T10:30:08.493Z,103230.22
2023-02-14T10:32:41.348Z,103227.13
2023-02-14T10:35:21.620Z,103235.75
2023-02-14T10:37:58.440Z,103221.75
2023-02-14T10:40:39.954Z,103216.31
2023-02-14T10:43:19.322Z,103216.81
2023-02-14T10:45:54.331Z,103214.03
2023-02-14T10:48:31.116Z,103218.31
2023-02-14T10:51:06.161Z,103218.44
2023-02-14T10:53:38.855Z,103221.38
2023-02-14T10:56:10.063Z,103210.25
2023-02-14T10:58:41.837Z,103217.53
2023-02-14T11:01:13.786Z,103210.66
2023-02-14T11:03:52.409Z,103218.00
2023-02-14T11:06:22.520Z,103214.63
2023-02-14T11:08:51.571Z,103211.25
2023-02-14T11:11:25.685Z,103205.72
2023-02-14T11:13:55.282Z,103211.53
2023-02-14T11:16:33.388Z,103213.97
2023-02-14T11:19:21.106Z,103209.28
2023-02-14T11:21:50.925Z,103207.75
2023-02-14T11:24:21.443Z,103210.38
2023-02-14T11:26:52.931Z,103204.31
2023-02-14T11:29:28.259Z,103196.25
2023-02-14T11:31:59.710Z,103196.97
2023-02-14T11:34:36.754Z,103195.44
2023-02-14T11:37:05.779Z,103201.00
2023-02-14T11:39:37.495Z,103203.53
2023-02-14T11:42:11.110Z,103200.53
2023-02-14T11:44:55.827Z,103191.75
2023-02-14T11:47:28.379Z,103188.31
2023-02-14T11:49:58.196Z,103196.78
2023-02-14T11:52:29.800Z,103191.16
2023-02-14T11:54:58.859Z,103194.66
2023-02-14T11:57:28.931Z,103189.22
2023-02-14T12:00:01.682Z,103181.72
2023-02-14T12:02:46.786Z,103182.44
2023-02-14T12:05:20.466Z,103177.19
2023-02-14T12:07:49.957Z,103176.97
2023-02-14T12:10:27.864Z,103170.00
2023-02-14T12:15:54.461Z,103156.72
2023-02-14T12:18:37.098Z,103164.50
2023-02-14T12:21:19.625Z,103154.31
2023-02-14T12:23:56.023Z,103152.44
2023-02-14T12:26:29.028Z,103152.88
2023-02-14T12:29:04.434Z,103138.03
2023-02-14T12:31:42.182Z,103140.59
2023-02-14T12:34:17.260Z,103129.72
2023-02-14T12:37:05.723Z,103122.69
2023-02-14T12:39:40.611Z,103119.84
2023-02-14T12:42:22.998Z,103111.34
2023-02-14T12:44:57.803Z,103109.41
2023-02-14T12:47:33.349Z,103103.06
2023-02-14T12:50:28.749Z,103107.13
2023-02-14T12:53:14.085Z,103103.34
2023-02-14T12:55:52.259Z,103106.06
2023-02-14T12:58:30.761Z,103100.63
2023-02-14T13:01:28.543Z,103096.19
2023-02-14T13:04:21.528Z,103094.00
2023-02-14T13:06:58.828Z,103087.41
2023-02-14T13:09:36.897Z,103093.25
2023-02-14T13:12:17.404Z,103084.91
2023-02-14T13:14:58.890Z,103085.06
2023-02-14T13:17:35.326Z,103087.53
2023-02-14T13:20:16.688Z,103079.09
2023-02-14T13:22:51.498Z,103081.97
2023-02-14T13:25:32.026Z,103082.81
2023-02-14T13:28:06.642Z,103086.81
2023-02-14T13:30:38.788Z,103068.97
2023-02-14T13:33:11.207Z,103076.75
2023-02-14T13:35:47.584Z,103077.28
2023-02-14T13:38:20.396Z,103068.44
2023-02-14T13:40:50.682Z,103073.81
2023-02-14T13:43:56.619Z,103064.38
2023-02-14T13:46:48.144Z,103070.13
2023-02-14T13:49:32.722Z,103069.13
2023-02-14T13:52:04.822Z,103066.41
2023-02-14T13:54:38.727Z,103066.66
2023-02-14T13:57:30.023Z,103061.50
2023-02-14T14:00:31.308Z,103063.81
2023-02-14T14:02:59.839Z,103068.66
2023-02-14T14:06:03.366Z,103063.53
2023-02-14T14:08:47.048Z,103067.19
2023-02-14T14:12:01.355Z,103059.94
2023-02-14T14:14:39.885Z,103071.59
2023-02-14T14:17:27.949Z,103060.84
2023-02-14T14:19:58.063Z,103061.63
2023-02-14T14:22:27.242Z,103064.91
2023-02-14T14:24:59.308Z,103061.16
2023-02-14T14:27:31.800Z,103054.50
2023-02-14T14:30:03.345Z,103052.38
2023-02-14T14:32:37.261Z,103049.22
2023-02-14T14:35:08.206Z,103048.50
2023-02-14T14:37:38.427Z,103046.50
2023-02-14T14:40:21.332Z,103051.53
2023-02-14T14:42:50.250Z,103046.78
2023-02-14T14:45:26.053Z,103043.63
2023-02-14T14:47:56.757Z,103048.78
2023-02-14T14:50:26.900Z,103036.22
2023-02-14T14:52:57.125Z,103037.94
2023-02-14T14:55:34.702Z,103035.69
2023-02-14T14:58:33.449Z,103043.22
2023-02-14T15:01:01.893Z,103039.34
2023-02-14T15:03:32.445Z,103042.56
2023-02-14T15:06:08.721Z,103051.19
2023-02-14T15:08:37.992Z,103024.34
2023-02-14T15:11:13.780Z,103031.22
2023-02-14T15:13:53.433Z,103031.91
2023-02-14T15:16:26.346Z,103023.53
2023-02-14T15:18:57.404Z,103021.97
2023-02-14T15:21:25.946Z,103019.34
2023-02-14T15:23:55.278Z,103020.25
2023-02-14T15:26:29.446Z,103014.44
2023-02-14T15:29:01.252Z,103007.81
2023-02-14T15:31:35.903Z,103011.63
2023-02-14T15:34:08.090Z,103020.13
2023-02-14T15:36:36.986Z,103018.16
2023-02-14T15:39:07.289Z,103007.53
2023-02-14T15:41:38.239Z,103001.03
2023-02-14T15:44:06.516Z,103009.75
2023-02-14T15:46:38.224Z,103005.28
2023-02-14T15:49:13.379Z,103002.63
2023-02-14T15:51:45.788Z,103001.78
2023-02-14T15:54:24.521Z,102987.06
2023-02-14T15:56:58.792Z,102985.22
2023-02-14T15:59:30.957Z,102989.72
2023-02-14T16:02:02.029Z,102993.72
2023-02-14T16:04:35.172Z,102988.78
2023-02-14T16:07:17.176Z,102980.28
2023-02-14T16:09:45.273Z,102979.88
2023-02-14T16:12:33.027Z,102979.22
2023-02-14T16:15:12.401Z,102981.66
2023-02-14T16:17:42.118Z,102980.16
2023-02-14T16:20:40.263Z,102976.38
2023-02-14T16:23:21.196Z,102978.13
2023-02-14T16:25:52.155Z,102975.53
2023-02-14T16:28:23.532Z,102977.75
2023-02-14T16:30:58.671Z,102990.44
2023-02-14T16:33:31.206Z,102985.56
2023-02-14T16:36:06.295Z,102978.28
2023-02-14T16:38:38.030Z,102980.22
2023-02-14T16:41:07.178Z,102985.63
2023-02-14T16:43:38.211Z,102981.25
2023-02-14T16:46:06.527Z,102985.44
2023-02-14T16:48:35.728Z,102991.03
2023-02-14T16:51:05.981Z,102990.22
2023-02-14T16:53:34.806Z,102992.69
2023-02-14T16:56:03.304Z,102985.22
2023-02-14T16:58:35.059Z,102982.66
2023-02-14T17:01:04.668Z,102985.47
2023-02-14T17:03:33.477Z,102986.22
2023-02-14T17:06:02.940Z,102992.28
2023-02-14T17:08:36.863Z,102981.78
2023-02-14T17:11:06.451Z,102993.00
2023-02-14T17:13:40.616Z,102993.84
2023-02-14T17:16:13.117Z,102988.06
2023-02-14T17:18:44.393Z,102983.28
2023-02-14T17:21:16.193Z,102990.13
2023-02-14T17:23:45.311Z,102983.31
2023-02-14T17:26:14.281Z,102983.84
2023-02-14T17:28:43.874Z,102985.88
2023-02-14T17:31:16.500Z,102980.72
2023-02-14T17:33:45.558Z,102978.81
2023-02-14T17:36:16.258Z,102976.97
2023-02-14T17:38:44.872Z,102977.16
2023-02-14T17:41:15.806Z,102980.78
2023-02-14T17:43:45.082Z,102978.13
2023-02-14T17:46:17.016Z,102975.69
2023-02-14T17:48:47.538Z,102980.44
2023-02-14T17:51:16.777Z,102972.47
2023-02-14T17:53:49.101Z,102968.25
2023-02-14T17:56:19.328Z,102962.16
2023-02-14T17:58:50.718Z,102965.38
2023-02-14T18:01:22.542Z,102971.00
2023-02-14T18:03:52.719Z,102968.78
2023-02-14T18:06:22.693Z,102963.03
2023-02-14T18:08:54.699Z,102959.53
2023-02-14T18:11:25.785Z,102952.28
2023-02-14T18:13:56.048Z,102950.44
2023-02-14T18:16:25.728Z,102952.22
2023-02-14T18:18:54.852Z,102949.41
2023-02-14T18:21:24.513Z,102957.53
2023-02-14T18:23:53.280Z,102953.28
2023-02-14T18:26:21.350Z,102946.63
2023-02-14T18:28:51.271Z,102949.91
2023-02-14T18:31:20.070Z,102943.19
2023-02-14T18:33:52.179Z,102935.59
2023-02-14T18:36:24.156Z,102928.88
2023-02-14T18:38:54.745Z,102920.16
2023-02-14T18:41:23.754Z,102929.78
2023-02-14T18:43:52.869Z,102931.41
2023-02-14T18:46:22.771Z,102926.09
2023-02-14T18:48:52.574Z,102926.81
2023-02-14T18:51:23.607Z,102925.94
2023-02-14T18:53:53.119Z,102922.72
2023-02-14T18:56:23.589Z,102926.50
2023-02-14T18:58:53.104Z,102921.50
2023-02-14T19:01:23.553Z,102917.28
2023-02-14T19:03:57.828Z,102909.84
2023-02-14T19:06:29.359Z,102916.88
2023-02-14T19:09:00.210Z,102905.13
2023-02-14T19:11:32.546Z,102903.19
2023-02-14T19:14:02.131Z,102898.06
2023-02-14T19:16:33.319Z,102903.34
2023-02-14T19:19:06.190Z,102895.22
2023-02-14T19:21:35.605Z,102896.72
2023-02-14T19:24:09.796Z,102899.00
2023-02-14T19:26:40.501Z,102893.84
2023-02-14T19:29:11.343Z,102883.94
2023-02-14T19:31:41.290Z,102881.63
2023-02-14T19:34:17.449Z,102889.78
2023-02-14T19:36:45.925Z,102891.25
2023-02-14T19:39:15.368Z,102886.78
2023-02-14T19:41:43.604Z,102900.63
2023-02-14T19:44:14.808Z,102892.94
2023-02-14T19:46:45.533Z,102892.31
2023-02-14T19:49:19.242Z,102892.38
2023-02-14T19:51:50.988Z,102891.56
2023-02-14T19:54:21.968Z,102884.84
2023-02-14T19:56:52.342Z,102892.19
2023-02-14T19:59:22.902Z,102893.56
2023-02-14T20:01:53.937Z,102888.41
2023-02-14T20:04:26.168Z,102881.44
2023-02-14T20:06:55.049Z,102892.75
2023-02-14T20:09:24.976Z,102893.50
2023-02-14T20:11:55.338Z,102895.25
2023-02-14T20:14:25.368Z,102885.25
2023-02-14T20:16:56.092Z,102886.91
2023-02-14T20:19:29.378Z,102882.03
2023-02-14T20:21:59.032Z,102876.19
2023-02-14T20:24:30.620Z,102874.34
2023-02-14T20:27:00.441Z,102870.34
2023-02-14T20:29:29.769Z,102865.06
2023-02-14T20:31:59.866Z,102862.09
2023-02-14T20:34:30.232Z,102865.19
2023-02-14T20:36:59.249Z,102861.03
2023-02-14T20:39:33.459Z,102857.16
2023-02-14T20:42:03.413Z,102846.34
2023-02-14T20:44:32.037Z,102840.22
2023-02-14T20:47:00.718Z,102846.34
2023-02-14T20:49:32.657Z,102851.09
2023-02-14T20:52:01.290Z,102851.00
2023-02-14T20:54:32.425Z,102848.66
2023-02-14T20:57:02.204Z,102848.16
2023-02-14T20:59:30.710Z,102843.66
2023-02-14T21:01:59.769Z,102847.00
2023-02-14T21:04:31.644Z,102838.91
2023-02-14T21:07:04.033Z,102845.03
2023-02-14T21:09:37.833Z,102851.38
2023-02-14T21:12:07.601Z,102847.28
2023-02-14T21:14:36.629Z,102839.31
2023-02-14T21:17:05.811Z,102837.91
2023-02-14T21:19:35.785Z,102826.44
2023-02-14T21:22:05.223Z,102827.50
2023-02-14T21:24:34.383Z,102825.22
2023-02-14T21:27:03.052Z,102827.72
2023-02-14T21:29:31.414Z,102828.75
2023-02-14T21:32:01.781Z,102832.16
2023-02-14T21:34:31.644Z,102828.88
2023-02-14T21:37:02.458Z,102832.09
2023-02-14T21:39:31.017Z,102820.78
2023-02-14T21:41:59.693Z,102817.66
2023-02-14T21:44:46.844Z,102808.66
2023-02-14T21:47:16.512Z,102809.50
2023-02-14T21:50:03.121Z,102817.94
2023-02-14T21:52:32.885Z,102814.22
2023-02-14T21:55:08.966Z,102812.31
2023-02-14T21:57:37.618Z,102808.09
2023-02-14T22:00:10.720Z,102808.88
2023-02-14T22:02:42.814Z,102807.41
2023-02-14T22:05:11.134Z,102813.28
2023-02-14T22:07:41.629Z,102801.91
2023-02-14T22:10:10.118Z,102810.66
2023-02-14T22:12:38.277Z,102803.88
2023-02-14T22:15:07.239Z,102804.19
2023-02-14T22:17:36.361Z,102814.50
2023-02-14T22:20:06.048Z,102808.59
2023-02-14T22:22:34.710Z,102796.47
2023-02-14T22:25:06.746Z,102795.53
2023-02-14T22:27:39.538Z,102796.63
2023-02-14T22:30:08.964Z,102790.56
2023-02-14T22:32:37.023Z,102788.25
2023-02-14T22:35:06.323Z,102785.13
2023-02-14T22:37:34.612Z,102775.22
2023-02-14T22:40:04.361Z,102782.47
2023-02-14T22:42:33.614Z,102779.63
2023-02-14T22:45:02.092Z,102780.66
2023-02-14T22:47:30.085Z,102771.09
2023-02-14T22:50:01.071Z,102775.34
2023-02-14T22:52:30.637Z,102764.63
2023-02-14T22:55:00.303Z,102769.97
2023-02-14T22:57:29.966Z,102762.84
2023-02-14T22:59:58.738Z,102775.34
2023-02-14T23:02:28.060Z,102763.13
2023-02-14T23:04:57.325Z,102763.06
2023-02-14T23:07:25.783Z,102768.47
2023-02-14T23:09:54.418Z,102756.47
2023-02-14T23:12:41.230Z,102757.72
2023-02-14T23:15:29.685Z,102762.34
2023-02-14T23:18:15.373Z,102757.06
2023-02-14T23:21:01.220Z,102756.28
2023-02-14T23:23:35.292Z,102750.97
2023-02-14T23:26:03.896Z,102752.94
2023-02-14T23:28:32.351Z,102755.44
2023-02-14T23:31:03.120Z,102754.19
2023-02-14T23:33:31.486Z,102757.06
2023-02-14T23:36:04.090Z,102753.59
2023-02-14T23:38:32.148Z,102746.75
2023-02-14T23:41:27.904Z,102745.88
2023-02-14T23:43:57.511Z,102743.31
2023-02-14T23:46:28.023Z,102741.75
2023-02-14T23:48:56.924Z,102742.13
2023-02-14T23:51:25.228Z,102747.28
2023-02-14T23:53:54.930Z,102735.63
2023-02-14T23:56:23.529Z,102742.66
2023-02-14T23:58:53.906Z,102740.16
